Time;durP1;ratioP1;P1;durP2;ratioP2;P2;SDS_P1;SDS_P2;PMS_P1;PMS_P2;Temp;Humidity;BMP_temperature;BMP_pressure;BME280_temperature;BME280_humidity;BME280_pressure;Samples;Min_cycle;Max_cycle;Signal;HPM_P1;HPM_P2
2023/07/05 00:02:17;;;;;;;3.47;2.25;;;17.60;99.90;;;17.60;100.00;96827.03;5042644;28;20394;-37
2023/07/05 00:04:42;;;;;;;4.43;2.38;;;17.70;99.90;;;17.71;98.46;96836.88;5041026;28;20040;-38
2023/07/05 00:07:08;;;;;;;3.13;2.00;;;17.80;99.90;;;17.80;96.98;96830.00;5039664;28;20617;-38
2023/07/05 00:09:34;;;;;;;4.93;2.17;;;17.90;99.90;;;17.85;96.50;96820.72;5037323;28;20037;-37
2023/07/05 00:12:00;;;;;;;4.68;2.60;;;17.90;99.90;;;17.87;96.95;96828.63;5035640;28;20029;-37
2023/07/05 00:14:25;;;;;;;4.63;2.80;;;18.00;99.90;;;17.87;96.89;96815.28;5039192;28;20115;-38
2023/07/05 00:16:51;;;;;;;2.90;2.10;;;18.00;99.90;;;17.87;96.52;96815.28;5041330;28;20067;-39
2023/07/05 00:19:17;;;;;;;4.05;2.40;;;18.00;99.90;;;17.83;96.17;96808.47;5040684;28;20024;-38
2023/07/05 00:21:42;;;;;;;3.47;2.42;;;17.90;99.90;;;17.74;97.72;96816.19;5039771;28;20039;-37
2023/07/05 00:24:08;;;;;;;3.70;2.40;;;17.80;99.90;;;17.67;98.18;96820.28;5040495;28;20363;-36
2023/07/05 00:26:34;;;;;;;3.88;2.20;;;17.80;99.90;;;17.65;98.25;96816.03;5034315;28;20029;-36
2023/07/05 00:28:59;;;;;;;4.40;2.40;;;17.80;99.90;;;17.65;97.33;96810.69;5031366;28;20441;-36
2023/07/05 00:31:25;;;;;;;3.33;2.30;;;17.80;99.90;;;17.67;97.23;96814.94;5034816;28;20115;-37
2023/07/05 00:33:51;;;;;;;3.15;2.20;;;17.80;99.90;;;17.63;96.79;96808.13;5042655;28;20032;-37
2023/07/05 00:36:16;;;;;;;2.75;1.70;;;17.80;99.90;;;17.75;96.32;96822.38;5034342;28;20036;-37
2023/07/05 00:38:42;;;;;;;5.82;2.30;;;17.80;99.90;;;17.78;94.49;96811.47;5033600;28;20111;-37
2023/07/05 00:41:08;;;;;;;3.20;2.25;;;17.90;99.90;;;17.80;94.39;96795.34;5037946;28;20429;-37
2023/07/05 00:43:34;;;;;;;3.15;1.90;;;17.90;99.90;;;17.82;94.19;96801.41;5038269;28;20024;-36
2023/07/05 00:46:13;;;;;;;2.78;1.98;;;17.90;99.90;;;17.81;94.59;96794.41;5036920;28;20704;-36
2023/07/05 00:48:50;;;;;;;3.33;2.38;;;17.90;99.90;;;17.80;95.48;96795.34;5040265;28;20494;-37
2023/07/05 00:51:50;;;;;;;2.78;1.90;;;17.90;99.90;;;17.82;93.86;96790.75;5041761;28;20115;-37
2023/07/05 00:54:22;;;;;;;3.47;1.77;;;17.90;99.90;;;17.84;94.33;96784.34;5036536;28;20044;-37
2023/07/05 00:56:54;;;;;;;2.80;1.95;;;17.90;99.90;;;17.89;93.72;96781.34;5037005;28;20091;-36
2023/07/05 00:59:21;;;;;;;;;;;17.90;99.90;;;17.92;93.56;96771.28;5036468;28;20040;-37
2023/07/05 01:01:47;;;;;;;3.45;2.10;;;18.00;99.90;;;17.97;93.16;96762.09;5032254;28;19924;-37
2023/07/05 01:04:13;;;;;;;4.07;1.95;;;18.10;99.90;;;17.99;92.68;96761.00;5037427;28;20033;-37
2023/07/05 01:06:39;;;;;;;2.22;1.83;;;18.10;99.90;;;18.02;92.69;96771.44;5037934;28;20421;-37
2023/07/05 01:09:06;;;;;;;3.67;1.63;;;18.20;99.90;;;18.06;91.94;96774.72;5037713;28;20078;-37
2023/07/05 01:11:41;;;;;;;3.00;1.52;;;18.20;99.90;;;18.08;91.80;96776.28;5038712;28;20504;-36
2023/07/05 01:14:26;;;;;;;2.88;1.60;;;18.20;99.90;;;18.10;91.13;96773.50;5034893;28;20830;-37
2023/07/05 01:17:29;;;;;;;2.63;1.83;;;18.20;99.90;;;18.17;91.06;96773.91;5038021;28;20040;-37
2023/07/05 01:20:21;;;;;;;;;;;18.30;99.90;;;18.27;93.84;96780.22;5036968;28;20074;-36
2023/07/05 01:23:24;;;;;;;6.63;1.70;;;18.40;99.90;;;18.28;100.00;96777.41;5035533;28;20039;-37
2023/07/05 01:26:01;;;;;;;2.80;1.48;;;18.30;99.90;;;18.05;100.00;96771.22;5034493;28;20632;-36
2023/07/05 01:29:00;;;;;;;2.38;1.67;;;18.10;99.90;;;17.86;100.00;96770.94;5044402;28;20037;-37
2023/07/05 01:32:03;;;;;;;1.80;1.58;;;17.90;99.90;;;17.70;100.00;96755.22;5038108;28;20256;-37
2023/07/05 01:34:55;;;;;;;3.72;1.58;;;17.90;99.90;;;17.61;100.00;96762.09;5042769;28;20032;-37
2023/07/05 01:37:42;;;;;;;3.38;1.70;;;17.80;99.90;;;17.51;100.00;96769.06;5040109;28;20033;-37
2023/07/05 01:40:21;;;;;;;2.47;1.55;;;17.70;99.90;;;17.42;100.00;96767.09;5038608;28;20052;-36
2023/07/05 01:43:00;;;;;;;2.25;1.58;;;17.60;99.90;;;17.36;100.00;96763.06;5046960;28;20045;-36
2023/07/05 01:45:55;;;;;;;2.72;1.42;;;17.50;99.90;;;17.33;100.00;96752.63;5036352;28;20033;-36
2023/07/05 01:48:41;;;;;;;3.33;1.70;;;17.50;99.90;;;17.24;100.00;96748.84;5039285;28;20040;-37
2023/07/05 01:51:32;;;;;;;1.70;1.50;;;17.40;99.90;;;17.18;100.00;96752.81;5042778;28;20502;-36
2023/07/05 01:54:14;;;;;;;1.42;1.30;;;17.30;99.90;;;17.10;100.00;96759.66;5042055;28;20044;-36
2023/07/05 01:57:12;;;;;;;1.48;1.38;;;17.30;99.90;;;17.11;100.00;96775.53;5041422;28;20595;-36
2023/07/05 02:00:04;;;;;;;1.92;1.58;;;17.20;99.90;;;17.09;100.00;96781.97;5035992;28;20383;-36
2023/07/05 02:02:34;;;;;;;3.03;1.65;;;17.20;99.90;;;17.16;100.00;96775.22;5036635;28;20127;-36
2023/07/05 02:05:02;;;;;;;3.03;1.70;;;17.30;99.90;;;17.19;100.00;96793.63;5034793;28;20067;-36
2023/07/05 02:07:30;;;;;;;2.13;1.55;;;17.30;99.90;;;17.18;100.00;96775.94;5036931;28;20034;-36
2023/07/05 02:09:56;;;;;;;2.00;1.40;;;17.40;99.90;;;17.27;100.00;96801.06;5036646;28;20033;-36
2023/07/05 02:12:23;;;;;;;2.53;1.40;;;17.40;99.90;;;17.34;100.00;96795.16;5038570;28;20059;-36
2023/07/05 02:14:49;;;;;;;1.75;1.40;;;17.50;99.90;;;17.40;100.00;96795.69;5039731;28;20521;-36
2023/07/05 02:17:16;;;;;;;1.40;1.20;;;17.50;99.90;;;17.39;100.00;96796.63;5034933;28;21786;-36
2023/07/05 02:19:42;;;;;;;3.00;1.60;;;17.60;99.90;;;17.55;100.00;96810.53;5037091;28;20307;-36
2023/07/05 02:22:08;;;;;;;3.03;1.60;;;17.70;99.90;;;17.61;100.00;96820.75;5039346;28;20556;-37
2023/07/05 02:24:33;;;;;;;3.88;1.50;;;17.80;99.90;;;17.68;100.00;96821.13;5043646;28;20025;-37
2023/07/05 02:26:59;;;;;;;2.42;1.50;;;17.80;99.90;;;17.64;100.00;96833.84;5041418;28;20090;-37
2023/07/05 02:29:25;;;;;;;3.47;1.42;;;17.80;99.90;;;17.57;100.00;96837.94;5044275;28;20029;-37
2023/07/05 02:31:51;;;;;;;1.88;1.45;;;17.80;99.90;;;17.44;100.00;96829.13;5020894;28;20037;-37
2023/07/05 02:34:17;;;;;;;3.05;1.40;;;17.70;99.90;;;17.43;100.00;96838.09;5040712;28;20453;-37
2023/07/05 02:36:43;;;;;;;2.58;1.77;;;17.60;99.90;;;17.32;100.00;96842.41;5037412;28;20548;-37
2023/07/05 02:39:09;;;;;;;3.60;1.45;;;17.50;99.90;;;17.21;100.00;96838.81;5045493;28;20040;-37
2023/07/05 02:41:35;;;;;;;2.60;1.50;;;17.40;99.90;;;17.10;100.00;96826.25;5043628;28;20064;-37
2023/07/05 02:44:00;;;;;;;4.20;1.60;;;17.30;99.90;;;16.99;100.00;96824.38;5041149;28;20033;-37
2023/07/05 02:46:29;;;;;;;2.30;1.60;;;17.20;99.90;;;16.89;100.00;96844.66;5042514;28;20147;-37
2023/07/05 02:48:57;;;;;;;2.97;1.55;;;17.10;99.90;;;16.80;100.00;96841.66;5042755;28;20075;-37
2023/07/05 02:51:28;;;;;;;2.35;1.77;;;17.00;99.90;;;16.75;100.00;96835.78;5042544;28;20037;-37
2023/07/05 02:53:54;;;;;;;2.57;2.07;;;16.90;99.90;;;16.68;100.00;96826.53;5044177;28;20096;-37
2023/07/05 02:56:20;;;;;;;3.70;1.45;;;16.90;99.90;;;16.67;100.00;96831.97;5044006;28;20151;-37
2023/07/05 02:58:46;;;;;;;2.00;1.48;;;16.90;99.90;;;16.63;100.00;96833.16;5042409;28;20037;-37
2023/07/05 03:01:12;;;;;;;2.60;1.75;;;16.80;99.90;;;16.56;100.00;96825.59;5040733;28;20500;-37
2023/07/05 03:03:38;;;;;;;2.55;1.63;;;16.70;99.90;;;16.51;100.00;96822.41;5043378;28;20564;-37
2023/07/05 03:06:04;;;;;;;2.60;1.80;;;16.70;99.90;;;16.47;100.00;96820.91;5037327;28;20036;-37
2023/07/05 03:08:30;;;;;;;2.28;1.52;;;16.70;99.90;;;16.44;100.00;96829.13;5038609;28;20064;-37
2023/07/05 03:10:58;;;;;;;3.45;1.80;;;16.60;99.90;;;16.45;100.00;96820.16;5038050;28;20016;-37
2023/07/05 03:13:31;;;;;;;2.85;1.67;;;16.60;99.90;;;16.44;100.00;96815.81;5037904;28;20687;-37
2023/07/05 03:15:57;;;;;;;2.40;1.75;;;16.70;99.90;;;16.49;100.00;96827.00;5035539;28;20126;-37
2023/07/05 03:18:25;;;;;;;2.10;1.58;;;16.70;99.90;;;16.51;100.00;96834.84;5041789;28;20041;-37
2023/07/05 03:20:50;;;;;;;2.20;1.50;;;16.70;99.90;;;16.49;100.00;96832.31;5037967;28;20433;-37
2023/07/05 03:23:17;;;;;;;3.17;1.60;;;16.70;99.90;;;16.46;100.00;96831.69;5041854;28;20028;-37
2023/07/05 03:26:02;;;;;;;2.10;1.60;;;16.70;99.90;;;16.46;100.00;96831.69;5038973;28;20037;-37
2023/07/05 03:28:30;;;;;;;2.88;1.90;;;16.60;99.90;;;16.45;100.00;96827.31;5036901;28;20047;-37
2023/07/05 03:31:03;;;;;;;2.90;1.92;;;16.60;99.90;;;16.47;100.00;96836.03;5038049;28;20024;-37
2023/07/05 03:33:30;;;;;;;2.30;1.42;;;16.60;99.90;;;16.48;100.00;96829.75;5045491;28;20052;-37
2023/07/05 03:36:05;;;;;;;2.22;1.65;;;16.70;99.90;;;16.51;100.00;96834.84;5036720;28;20032;-37
2023/07/05 03:38:32;;;;;;;2.78;1.80;;;16.70;99.90;;;16.50;100.00;96831.34;5041312;28;20540;-37
2023/07/05 03:41:04;;;;;;;3.65;1.50;;;16.70;99.90;;;16.59;100.00;96843.16;5034130;28;20040;-37
2023/07/05 03:43:35;;;;;;;2.05;1.30;;;16.80;99.90;;;16.58;100.00;96842.31;5042721;28;20106;-37
2023/07/05 03:46:04;;;;;;;2.30;1.50;;;16.70;99.90;;;16.57;100.00;96848.59;5034552;28;20060;-37
2023/07/05 03:48:33;;;;;;;1.75;1.40;;;16.70;99.90;;;16.56;100.00;96844.25;5047061;28;20029;-37
2023/07/05 03:50:59;;;;;;;3.15;1.52;;;16.70;99.90;;;16.55;100.00;96842.53;5039791;28;20033;-37
2023/07/05 03:53:25;;;;;;;1.98;1.58;;;16.70;99.90;;;16.53;100.00;96841.78;5033141;28;20129;-37
2023/07/05 03:55:52;;;;;;;1.58;1.48;;;16.70;99.90;;;16.50;100.00;96841.16;5036891;28;20032;-37
2023/07/05 03:58:18;;;;;;;1.77;1.40;;;16.70;99.90;;;16.45;100.00;96840.59;5037187;28;20381;-37
2023/07/05 04:00:45;;;;;;;3.40;1.60;;;16.60;99.90;;;16.40;100.00;96843.56;5023881;28;20082;-37
2023/07/05 04:03:12;;;;;;;2.78;1.60;;;16.60;99.90;;;16.36;100.00;96842.94;5025046;28;20041;-37
2023/07/05 04:05:39;;;;;;;2.40;1.50;;;16.60;99.90;;;16.37;100.00;96843.81;5032030;28;20030;-36
2023/07/05 04:08:04;;;;;;;2.40;1.70;;;16.50;99.90;;;16.36;100.00;96842.94;5035058;28;20071;-37
2023/07/05 04:10:30;;;;;;;4.43;1.50;;;16.50;99.90;;;16.35;100.00;96849.22;5041001;28;20037;-37
2023/07/05 04:12:56;;;;;;;2.05;1.60;;;16.50;99.90;;;16.33;100.00;96845.84;5042062;28;20056;-36
2023/07/05 04:15:22;;;;;;;2.03;1.52;;;16.50;99.90;;;16.35;100.00;96849.22;5036489;28;20054;-36
2023/07/05 04:17:47;;;;;;;2.80;1.27;;;16.50;99.90;;;16.41;100.00;96850.63;5031343;28;20024;-37
2023/07/05 04:20:13;;;;;;;2.08;1.50;;;16.60;99.90;;;16.45;100.00;96856.56;5032148;28;20509;-37
2023/07/05 04:22:40;;;;;;;2.03;1.50;;;16.60;99.90;;;16.46;100.00;96839.66;5037323;28;20039;-36
2023/07/05 04:25:08;;;;;;;1.90;1.58;;;16.60;99.90;;;16.39;100.00;96825.94;5033256;28;20028;-36
2023/07/05 04:27:34;;;;;;;2.55;1.80;;;16.60;99.90;;;16.44;100.00;96823.81;5033961;28;20075;-36
2023/07/05 04:30:00;;;;;;;3.92;1.67;;;16.60;99.90;;;16.44;100.00;96833.56;5033078;28;20048;-36
2023/07/05 04:32:26;;;;;;;5.70;1.70;;;16.60;99.90;;;16.43;100.00;96824.75;5033029;28;20029;-36
2023/07/05 04:34:51;;;;;;;4.82;1.70;;;16.50;99.90;;;16.43;100.00;96824.75;5029557;28;20043;-36
2023/07/05 04:37:17;;;;;;;2.10;1.77;;;16.50;99.90;;;16.39;100.00;96833.91;5037922;28;20127;-36
2023/07/05 04:39:43;;;;;;;4.38;1.60;;;16.50;99.90;;;16.38;100.00;96825.09;5031991;28;20119;-36
2023/07/05 04:42:08;;;;;;;2.58;1.60;;;16.50;99.90;;;16.36;100.00;96815.50;5025866;28;20029;-36
2023/07/05 04:44:35;;;;;;;3.22;1.40;;;16.50;99.90;;;16.33;100.00;96816.56;5041978;28;20528;-36
2023/07/05 04:47:00;;;;;;;5.13;1.65;;;16.50;99.90;;;16.30;100.00;96826.56;5030804;28;20508;-36
2023/07/05 04:49:26;;;;;;;1.90;1.30;;;16.40;99.90;;;16.32;100.00;96824.66;5027856;28;20029;-36
2023/07/05 04:51:52;;;;;;;3.75;2.15;;;16.50;99.90;;;16.34;100.00;96820.06;5025588;28;20115;-36
2023/07/05 04:54:17;;;;;;;1.77;1.52;;;16.50;99.90;;;16.47;100.00;96828.03;5031553;28;20155;-36
2023/07/05 04:56:43;;;;;;;2.03;1.55;;;16.60;99.90;;;16.61;100.00;96825.25;5037474;28;20486;-36
2023/07/05 04:59:10;;;;;;;2.65;1.70;;;16.70;99.90;;;16.67;100.00;96813.31;5030554;28;20094;-36
2023/07/05 05:02:13;;;;;;;2.60;1.60;;;16.90;99.90;;;16.89;100.00;96818.88;5031637;28;20048;-36
2023/07/05 05:04:38;;;;;;;3.58;1.70;;;17.00;99.90;;;17.06;100.00;96814.97;5047870;28;20032;-36
2023/07/05 05:07:05;;;;;;;2.53;1.60;;;17.20;99.90;;;17.21;100.00;96802.38;5047152;28;20037;-37
2023/07/05 05:09:31;;;;;;;3.33;1.90;;;17.30;99.90;;;17.40;100.00;96801.00;5041537;28;20063;-37
2023/07/05 05:11:57;;;;;;;2.08;1.45;;;17.50;99.90;;;17.51;100.00;96801.06;5041960;28;20102;-37
2023/07/05 05:14:22;;;;;;;2.10;1.70;;;17.60;99.90;;;17.46;100.00;96782.75;5043486;28;21254;-37
2023/07/05 05:16:48;;;;;;;2.30;1.55;;;17.60;99.90;;;17.54;100.00;96793.69;5045098;28;20036;-36
2023/07/05 05:19:14;;;;;;;2.85;1.42;;;17.60;99.90;;;17.59;100.00;96785.34;5039536;28;20348;-37
2023/07/05 05:21:39;;;;;;;2.45;1.63;;;17.70;99.90;;;17.75;100.00;96795.72;5044392;28;20043;-36
2023/07/05 05:24:40;;;;;;;1.55;1.33;;;17.80;99.90;;;17.87;100.00;96794.81;5051965;28;20475;-36
2023/07/05 05:27:06;;;;;;;4.07;1.58;;;17.90;99.90;;;17.98;100.00;96794.00;5033032;28;20079;-36
2023/07/05 05:29:32;;;;;;;3.88;1.40;;;18.00;99.90;;;18.28;100.00;96800.59;5050213;28;20478;-36
2023/07/05 05:31:58;;;;;;;2.17;1.50;;;18.10;99.90;;;18.38;100.00;96808.75;5048075;28;21826;-36
2023/07/05 05:34:27;;;;;;;3.05;1.48;;;18.30;99.90;;;18.37;100.00;96815.88;5044551;28;20167;-36
2023/07/05 05:36:53;;;;;;;2.45;1.30;;;18.40;99.90;;;18.28;100.00;96801.44;5048792;28;20140;-36
2023/07/05 05:39:20;;;;;;;3.45;1.60;;;18.40;99.90;;;18.31;100.00;96811.88;5047443;28;20564;-36
2023/07/05 05:41:46;;;;;;;4.00;1.77;;;18.40;99.90;;;18.27;100.00;96817.59;5049687;28;20174;-36
2023/07/05 05:44:12;;;;;;;3.42;1.50;;;18.40;99.90;;;18.30;100.00;96820.88;5044610;28;20033;-36
2023/07/05 05:46:38;;;;;;;2.15;1.30;;;18.40;99.90;;;18.43;100.00;96822.56;5044975;28;20390;-36
2023/07/05 05:49:03;;;;;;;2.42;1.40;;;18.50;99.90;;;18.53;100.00;96817.38;5045377;28;20040;-36
2023/07/05 05:51:29;;;;;;;2.53;1.63;;;18.70;99.90;;;18.76;100.00;96824.41;5051683;28;20024;-36
2023/07/05 05:53:55;;;;;;;2.78;1.40;;;18.80;99.90;;;18.89;100.00;96809.13;5045969;28;20939;-36
2023/07/05 05:56:21;;;;;;;1.77;1.50;;;19.00;99.90;;;19.22;100.00;96830.59;5043535;28;20052;-36
2023/07/05 05:58:47;;;;;;;1.80;1.50;;;19.20;99.90;;;19.34;100.00;96834.94;5044439;28;20105;-36
2023/07/05 06:01:13;;;;;;;2.90;1.63;;;19.40;99.90;;;19.43;100.00;96836.00;5047038;28;20033;-36
2023/07/05 06:03:39;;;;;;;4.80;1.80;;;19.50;99.90;;;19.55;100.00;96829.66;5042768;28;20462;-36
2023/07/05 06:06:05;;;;;;;2.28;1.42;;;19.60;99.90;;;19.68;100.00;96831.31;5043256;28;20090;-36
2023/07/05 06:08:32;;;;;;;2.47;1.65;;;19.80;99.90;;;19.82;100.00;96837.25;5048028;28;20036;-36
2023/07/05 06:11:00;;;;;;;2.78;1.70;;;19.90;99.90;;;19.95;100.00;96831.72;5043595;28;20116;-36
2023/07/05 06:13:27;;;;;;;3.08;1.58;;;20.00;99.90;;;20.07;100.00;96840.56;5041113;28;20043;-36
2023/07/05 06:16:02;;;;;;;3.38;1.67;;;20.20;99.90;;;20.18;100.00;96835.13;5044209;28;20466;-36
2023/07/05 06:18:28;;;;;;;1.42;1.30;;;20.30;99.90;;;20.31;100.00;96848.31;5040732;28;20059;-36
2023/07/05 06:20:54;;;;;;;5.90;1.50;;;20.50;99.90;;;20.54;100.00;96859.75;5044634;28;20062;-36
2023/07/05 06:23:21;;;;;;;3.25;1.88;;;20.60;99.90;;;20.73;100.00;96855.53;5047919;28;20418;-36
2023/07/05 06:25:48;;;;;;;3.35;1.90;;;20.90;99.90;;;21.03;99.80;96872.56;5046568;28;20025;-36
2023/07/05 06:28:18;;;;;;;4.57;2.13;;;21.20;99.90;;;21.35;95.02;96884.00;5045219;28;20028;-36
2023/07/05 06:30:45;;;;;;;2.38;1.77;;;21.50;99.90;;;21.68;93.22;96886.50;5044713;28;20284;-36
2023/07/05 06:33:11;;;;;;;2.83;1.90;;;21.70;99.90;;;21.91;91.53;96897.81;5044446;28;20039;-36
2023/07/05 06:35:37;;;;;;;3.00;1.60;;;22.10;99.90;;;22.10;91.83;96910.41;5044957;28;20040;-36
2023/07/05 06:38:03;;;;;;;2.85;1.58;;;22.20;99.90;;;21.60;91.92;96919.38;5043816;28;20450;-36
2023/07/05 06:40:29;;;;;;;4.93;1.60;;;21.90;99.90;;;21.03;100.00;96916.34;5044803;28;20159;-36
2023/07/05 06:42:55;;;;;;;2.95;1.40;;;21.40;99.90;;;20.24;100.00;96910.56;5049217;28;20505;-36
2023/07/05 06:45:21;;;;;;;3.75;1.60;;;20.70;99.90;;;19.41;100.00;96916.34;5041778;28;20047;-36
2023/07/05 06:47:47;;;;;;;4.72;1.65;;;19.90;99.90;;;18.69;100.00;96904.16;5044516;28;20033;-37
2023/07/05 06:50:13;;;;;;;4.55;1.50;;;19.20;99.90;;;18.18;100.00;96922.34;5042358;28;20379;-37
2023/07/05 06:52:39;;;;;;;2.53;1.52;;;18.60;99.90;;;17.76;100.00;96933.41;5045570;28;20047;-36
2023/07/05 06:55:06;;;;;;;7.00;1.95;;;18.10;99.90;;;17.48;100.00;96927.44;5042033;28;20047;-36
2023/07/05 06:57:32;;;;;;;4.65;1.58;;;17.80;99.90;;;17.22;100.00;96942.63;5044018;28;20569;-36
2023/07/05 06:59:58;;;;;;;3.67;1.60;;;17.40;99.90;;;17.03;100.00;96944.88;5045848;28;20309;-36
2023/07/05 07:02:23;;;;;;;3.65;1.60;;;17.20;99.90;;;16.77;100.00;96928.88;5048934;28;20122;-36
2023/07/05 07:04:49;;;;;;;2.72;1.48;;;17.10;99.90;;;16.75;100.00;96944.97;5049211;28;20107;-36
2023/07/05 07:07:15;;;;;;;3.42;1.50;;;16.90;99.90;;;16.66;100.00;96944.75;5047290;28;20051;-36
2023/07/05 07:09:41;;;;;;;2.70;1.63;;;16.90;99.90;;;16.65;100.00;96951.03;5049753;28;20033;-36
2023/07/05 07:12:08;;;;;;;3.47;2.00;;;16.80;99.90;;;16.63;100.00;96952.94;5046746;28;20494;-36
2023/07/05 07:14:34;;;;;;;3.50;1.83;;;16.80;99.90;;;16.67;100.00;96949.97;5044681;28;20044;-36
2023/07/05 07:17:00;;;;;;;4.50;1.80;;;16.80;99.90;;;16.75;100.00;96944.13;5032995;28;20024;-36
2023/07/05 07:19:25;;;;;;;2.85;1.70;;;16.90;99.90;;;16.96;100.00;96947.97;5040023;28;20051;-35
2023/07/05 07:21:52;;;;;;;3.13;2.00;;;17.00;99.90;;;17.17;100.00;96952.75;5042053;28;20044;-36
2023/07/05 07:24:17;;;;;;;2.85;1.85;;;17.20;99.90;;;17.54;100.00;96950.97;5041784;28;20460;-36
2023/07/05 07:26:43;;;;;;;3.38;1.90;;;17.50;99.90;;;17.91;100.00;96964.34;5040387;28;20586;-36
2023/07/05 07:29:10;;;;;;;3.78;1.95;;;17.90;99.90;;;18.05;100.00;96981.13;5045655;28;20641;-35
2023/07/05 07:31:36;;;;;;;2.75;1.85;;;18.00;99.90;;;18.39;100.00;96982.13;5045290;28;20036;-36
2023/07/05 07:34:07;;;;;;;2.55;1.63;;;18.30;99.90;;;18.43;100.00;96966.72;5045622;28;20025;-36
2023/07/05 07:36:35;;;;;;;2.72;1.70;;;18.50;99.90;;;18.63;100.00;96976.75;5045605;28;20032;-36
2023/07/05 07:39:01;;;;;;;2.53;1.67;;;18.70;99.90;;;18.83;100.00;96977.09;5048170;28;20033;-35
2023/07/05 07:41:36;;;;;;;3.03;1.60;;;18.80;99.90;;;19.08;100.00;96968.84;5044145;28;20349;-35
2023/07/05 07:44:08;;;;;;;4.25;1.50;;;19.20;99.90;;;19.54;100.00;96983.09;5042374;28;20020;-36
2023/07/05 07:46:36;;;;;;;2.00;1.27;;;19.60;99.90;;;19.66;100.00;96981.25;5039745;28;20033;-36
2023/07/05 07:49:04;;;;;;;1.65;1.05;;;19.70;99.90;;;19.45;100.00;96990.03;5042526;28;20129;-36
2023/07/05 07:51:34;;;;;;;1.70;1.20;;;19.70;99.90;;;19.09;100.00;96991.06;5045597;28;20032;-36
2023/07/05 07:54:00;;;;;;;3.13;1.40;;;19.50;99.90;;;18.92;100.00;97000.41;5043313;28;21684;-36
2023/07/05 07:56:26;;;;;;;3.20;1.50;;;19.20;99.90;;;18.72;100.00;96982.34;5037881;28;20109;-36
2023/07/05 07:58:56;;;;;;;1.95;1.35;;;19.00;99.90;;;18.60;100.00;96982.31;5045219;28;20072;-35
2023/07/05 08:01:32;;;;;;;4.55;1.70;;;18.80;99.90;;;18.54;100.00;96990.81;5045048;28;20075;-36
2023/07/05 08:04:01;;;;;;;2.50;1.30;;;18.80;99.90;;;18.43;100.00;96994.28;5045082;28;20366;-36
2023/07/05 08:06:40;;;;;;;1.90;1.40;;;18.70;99.90;;;18.15;100.00;96983.97;5040156;28;20380;-36
2023/07/05 08:09:10;;;;;;;1.75;1.20;;;18.50;99.90;;;18.01;100.00;97004.50;5042836;28;20041;-36
2023/07/05 08:11:38;;;;;;;1.63;1.15;;;18.30;99.90;;;17.83;100.00;97011.16;5045801;28;20028;-35
2023/07/05 08:14:05;;;;;;;2.78;1.45;;;18.10;99.90;;;17.65;100.00;96992.84;5040996;28;21407;-35
2023/07/05 08:16:31;;;;;;;2.72;1.63;;;18.00;99.90;;;17.64;100.00;97004.50;5043418;28;20944;-35
2023/07/05 08:18:57;;;;;;;3.28;1.42;;;17.90;99.90;;;17.44;100.00;97008.56;5042672;28;20030;-36
2023/07/05 08:21:23;;;;;;;2.30;1.30;;;17.90;99.90;;;17.41;100.00;97023.91;5042833;28;20033;-36
2023/07/05 08:23:49;;;;;;;3.75;1.30;;;17.80;99.90;;;17.35;100.00;97017.22;5044143;28;20040;-35
2023/07/05 08:26:15;;;;;;;2.67;1.70;;;17.70;99.90;;;17.22;100.00;97019.88;5039300;28;20512;-35
2023/07/05 08:28:41;;;;;;;3.03;1.70;;;17.60;99.90;;;17.18;100.00;97026.41;5047262;28;20040;-36
2023/07/05 08:31:08;;;;;;;1.70;1.33;;;17.50;99.90;;;17.22;100.00;97033.22;5041303;28;20349;-35
2023/07/05 08:33:36;;;;;;;3.00;1.73;;;17.50;99.90;;;17.31;100.00;97024.56;5057744;28;20060;-35
2023/07/05 08:36:04;;;;;;;3.78;1.60;;;17.60;99.90;;;17.38;100.00;97034.81;5043243;28;20025;-35
2023/07/05 08:38:30;;;;;;;2.55;1.40;;;17.60;99.90;;;17.46;100.00;97041.31;5045959;28;20036;-35
2023/07/05 08:41:16;;;;;;;2.75;1.52;;;17.70;99.90;;;17.51;100.00;97054.31;5042523;28;20036;-36
2023/07/05 08:44:02;;;;;;;2.10;1.67;;;17.70;99.90;;;17.50;100.00;97049.97;5044308;28;20048;-35
2023/07/05 08:46:29;;;;;;;2.22;1.52;;;17.80;99.90;;;17.62;100.00;97056.22;5042245;28;20071;-35
2023/07/05 08:49:16;;;;;;;3.00;1.70;;;17.90;99.90;;;17.71;100.00;97056.44;5042997;28;20600;-35
2023/07/05 08:51:42;;;;;;;2.72;2.05;;;18.00;99.90;;;17.83;100.00;97073.34;5039764;28;20033;-35
2023/07/05 08:54:12;;;;;;;5.32;1.85;;;18.10;99.90;;;17.92;100.00;97077.22;5039398;28;20036;-35
2023/07/05 08:56:44;;;;;;;2.00;1.67;;;18.10;99.90;;;18.03;100.00;97061.28;5042939;28;20032;-35
2023/07/05 08:59:24;;;;;;;3.42;2.05;;;18.30;99.90;;;18.36;100.00;97075.81;5044931;28;20075;-36
2023/07/05 09:01:54;;;;;;;2.28;1.75;;;18.50;99.90;;;18.48;100.00;97082.03;5047654;28;20059;-35
2023/07/05 09:04:27;;;;;;;5.40;2.58;;;18.70;99.90;;;18.42;100.00;97078.00;5040222;28;20102;-35
2023/07/05 09:07:40;;;;;;;2.95;1.98;;;18.70;99.90;;;18.40;100.00;97068.44;5044610;28;20552;-35
2023/07/05 09:10:22;;;;;;;3.15;2.17;;;18.60;99.90;;;18.20;100.00;97068.06;5047451;28;20336;-35
2023/07/05 09:13:16;;;;;;;3.15;2.20;;;18.60;99.90;;;18.25;100.00;97087.28;5045788;28;20052;-36
2023/07/05 09:15:56;;;;;;;4.70;1.90;;;18.50;99.90;;;18.25;100.00;97083.72;5045169;28;20769;-35
2023/07/05 09:18:35;;;;;;;3.22;2.13;;;18.40;99.90;;;18.44;100.00;97084.09;5039166;28;20040;-35
2023/07/05 09:21:37;;;;;;;3.00;2.05;;;18.60;99.90;;;18.91;100.00;97086.88;5041956;28;20138;-35
2023/07/05 09:24:25;;;;;;;3.58;1.90;;;19.10;99.90;;;19.41;100.00;97090.16;5034690;28;20509;-35
2023/07/05 09:27:05;;;;;;;4.15;2.05;;;19.50;99.90;;;19.76;100.00;97091.09;5040485;28;20421;-35
2023/07/05 09:30:06;;;;;;;3.80;2.20;;;20.00;99.90;;;20.02;100.00;97094.34;5044572;28;20432;-36
2023/07/05 09:32:37;;;;;;;2.70;2.47;;;20.20;99.90;;;20.43;100.00;97100.03;5046827;28;20064;-35
2023/07/05 09:35:04;;;;;;;3.88;2.15;;;20.60;99.90;;;20.66;100.00;97092.81;5040785;28;20124;-35
2023/07/05 09:37:34;;;;;;;4.50;2.08;;;20.90;99.90;;;20.80;100.00;97095.19;5046514;28;20496;-35
2023/07/05 09:40:31;;;;;;;5.05;2.40;;;21.10;99.90;;;20.69;100.00;97077.31;5045607;28;20028;-36
2023/07/05 09:43:28;;;;;;;3.85;2.50;;;21.10;99.90;;;20.63;100.00;97088.53;5043679;28;20036;-35
2023/07/05 09:45:56;;;;;;;3.35;2.53;;;20.90;99.90;;;20.69;100.00;97096.06;5043439;28;20049;-35
2023/07/05 09:48:22;;;;;;;3.92;2.70;;;20.90;99.90;;;20.67;100.00;97097.16;5043189;28;20053;-35
2023/07/05 09:50:50;;;;;;;3.55;2.20;;;20.90;99.90;;;20.53;100.00;97101.81;5041943;28;20158;-35
2023/07/05 09:53:45;;;;;;;4.10;2.72;;;20.90;99.90;;;20.50;100.00;97094.03;5045861;28;20124;-36
2023/07/05 09:56:27;;;;;;;4.40;2.65;;;20.80;99.90;;;20.31;91.62;97100.03;5037672;28;20029;-36
2023/07/05 09:59:21;;;;;;;4.28;2.60;;;20.60;99.90;;;19.98;100.00;97093.75;5042672;28;20037;-35
2023/07/05 10:01:53;;;;;;;3.90;2.70;;;20.40;99.90;;;19.67;94.30;97103.34;5039371;28;20048;-35
2023/07/05 10:04:24;;;;;;;3.92;2.45;;;20.00;99.90;;;19.49;91.06;97105.63;5056928;28;20533;-35
2023/07/05 10:06:50;;;;;;;4.22;2.55;;;19.80;99.90;;;19.53;90.64;97087.50;5043059;28;20035;-35
2023/07/05 10:09:22;;;;;;;4.25;2.95;;;19.70;99.90;;;19.56;85.30;97101.50;5045753;28;20028;-35
2023/07/05 10:11:56;;;;;;;3.78;2.65;;;19.70;99.90;;;19.45;87.87;97107.69;5050898;28;20391;-35
2023/07/05 10:14:29;;;;;;;3.35;2.42;;;19.70;99.90;;;19.39;89.68;97109.97;5044325;28;20039;-35
2023/07/05 10:17:02;;;;;;;3.33;2.50;;;19.60;99.90;;;19.46;87.43;97111.22;5046717;28;20055;-35
2023/07/05 10:19:41;;;;;;;4.57;2.92;;;19.60;99.90;;;19.75;84.77;97108.94;5045379;28;20064;-35
2023/07/05 10:22:25;;;;;;;3.50;2.72;;;19.90;99.90;;;20.02;86.34;97089.00;5042503;28;20496;-35
2023/07/05 10:24:57;;;;;;;5.40;2.70;;;20.10;99.90;;;20.14;66.36;97113.94;5042912;28;20039;-35
2023/07/05 10:27:37;;;;;;;3.42;2.65;;;20.30;99.90;;;20.10;63.40;97107.09;5045452;28;22096;-35
2023/07/05 10:30:13;;;;;;;4.00;2.45;;;20.30;99.90;;;20.13;62.64;97110.38;5038089;28;20116;-35
2023/07/05 10:33:17;;;;;;;4.45;2.65;;;20.30;99.90;;;20.32;60.72;97115.13;5046110;28;20027;-35